Other Surface Observations
Issued by NWS Missoula, MT

Home | Current Version | Previous Version | Text Only | Print | Product List | Glossary On
Versions: 1 2 3 4 5 6 7 8 9 10 11 12 13 14 15 16 17 18 19 20 21 22 23 24 25 26 27 28 29 30 31 32 33 34 35 36 37 38 39 40 41 42 43 44 45 46 47 48 49 50
000
SXUS55 KMSO 252203
OSOMSO
MONTANA AWOS SUMMARY
NATIONAL WEATHER SERVICE MISSOULA MT
303 PM MST THU DEC 25 2014

Montana AWOS Reports

LAUREL      |K6S8 252155Z AUTO 00000KT 40SM M04/M09 A2991 RMK AO1 T10381093
SCOBEY      |K9S2 252155Z AUTO 31013G18KT 25SM M09/M14 A2994 RMK AO1 T10881138
TWIN BRIDGES|K7S1 252155Z AUTO 33010KT 40SM M05/M12 A2987 RMK AO1 T10491116
MALTA       |KM75 252155Z AUTO 31005KT 40SM M02/M09 A2994 RMK AO1 T10211088




USA.gov is the U.S. government's official web portal to all federal, state and local government web resources and services.